sensor_id;sensor_type;location;lat;lon;timestamp;pressure;altitude;pressure_sealevel;temperature;humidity
32875;BME280;40468;42.128;24.750;2023-02-20T00:01:24;99823.13;;;14.44;40.00
32875;BME280;40468;42.128;24.750;2023-02-20T00:02:56;99823.88;;;14.46;39.86
32875;BME280;40468;42.128;24.750;2023-02-20T00:04:29;99827.44;;;14.45;39.89
32875;BME280;40468;42.128;24.750;2023-02-20T00:06:01;99833.50;;;14.46;39.97
32875;BME280;40468;42.128;24.750;2023-02-20T00:07:31;99831.72;;;14.46;39.96
32875;BME280;40468;42.128;24.750;2023-02-20T00:09:03;99833.44;;;14.47;40.15
32875;BME280;40468;42.128;24.750;2023-02-20T00:10:35;99836.97;;;14.46;39.86
32875;BME280;40468;42.128;24.750;2023-02-20T00:12:06;99835.28;;;14.45;40.07
32875;BME280;40468;42.128;24.750;2023-02-20T00:13:39;99844.94;;;14.45;39.93
32875;BME280;40468;42.128;24.750;2023-02-20T00:15:15;99843.34;;;14.42;39.99
32875;BME280;40468;42.128;24.750;2023-02-20T00:16:48;99848.69;;;14.41;39.95
32875;BME280;40468;42.128;24.750;2023-02-20T00:18:20;99848.75;;;14.39;40.08
32875;BME280;40468;42.128;24.750;2023-02-20T00:19:53;99849.59;;;14.40;40.18
32875;BME280;40468;42.128;24.750;2023-02-20T00:21:25;99846.25;;;14.38;40.05
32875;BME280;40468;42.128;24.750;2023-02-20T00:22:56;99855.88;;;14.37;40.28
32875;BME280;40468;42.128;24.750;2023-02-20T00:24:28;99862.88;;;14.37;40.21
32875;BME280;40468;42.128;24.750;2023-02-20T00:26:00;99862.22;;;14.33;40.33
32875;BME280;40468;42.128;24.750;2023-02-20T00:27:32;99856.34;;;14.29;40.25
32875;BME280;40468;42.128;24.750;2023-02-20T00:29:03;99860.06;;;14.25;40.54
32875;BME280;40468;42.128;24.750;2023-02-20T00:30:35;99861.19;;;14.21;40.47
32875;BME280;40468;42.128;24.750;2023-02-20T00:32:07;99858.09;;;14.15;40.74
32875;BME280;40468;42.128;24.750;2023-02-20T00:33:38;99859.38;;;14.07;40.82
32875;BME280;40468;42.128;24.750;2023-02-20T00:35:10;99855.31;;;14.02;41.23
32875;BME280;40468;42.128;24.750;2023-02-20T00:36:42;99859.91;;;13.98;41.10
32875;BME280;40468;42.128;24.750;2023-02-20T00:38:15;99861.97;;;13.93;41.05
32875;BME280;40468;42.128;24.750;2023-02-20T00:39:48;99863.81;;;13.91;41.10
32875;BME280;40468;42.128;24.750;2023-02-20T00:41:20;99862.28;;;13.87;41.40
32875;BME280;40468;42.128;24.750;2023-02-20T00:42:51;99857.41;;;13.81;41.58
32875;BME280;40468;42.128;24.750;2023-02-20T00:44:22;99849.84;;;13.76;41.43
32875;BME280;40468;42.128;24.750;2023-02-20T00:45:53;99849.09;;;13.74;41.52
32875;BME280;40468;42.128;24.750;2023-02-20T00:47:24;99846.66;;;13.71;41.73
32875;BME280;40468;42.128;24.750;2023-02-20T00:48:56;99847.75;;;13.67;41.65
32875;BME280;40468;42.128;24.750;2023-02-20T00:50:29;99858.41;;;13.64;42.03
32875;BME280;40468;42.128;24.750;2023-02-20T00:52:01;99845.50;;;13.61;41.98
32875;BME280;40468;42.128;24.750;2023-02-20T00:53:32;99842.28;;;13.56;42.14
32875;BME280;40468;42.128;24.750;2023-02-20T00:55:04;99846.59;;;13.57;41.97
32875;BME280;40468;42.128;24.750;2023-02-20T00:56:35;99844.16;;;13.54;42.29
32875;BME280;40468;42.128;24.750;2023-02-20T00:58:07;99851.09;;;13.55;42.27
32875;BME280;40468;42.128;24.750;2023-02-20T00:59:38;99840.50;;;13.56;42.12
32875;BME280;40468;42.128;24.750;2023-02-20T01:01:10;99839.50;;;13.59;41.91
32875;BME280;40468;42.128;24.750;2023-02-20T01:02:42;99849.97;;;13.59;42.24
32875;BME280;40468;42.128;24.750;2023-02-20T01:04:13;99834.25;;;13.59;42.14
32875;BME280;40468;42.128;24.750;2023-02-20T01:05:46;99835.03;;;13.61;41.75
32875;BME280;40468;42.128;24.750;2023-02-20T01:07:18;99827.06;;;13.62;42.22
32875;BME280;40468;42.128;24.750;2023-02-20T01:08:50;99838.31;;;13.64;42.00
32875;BME280;40468;42.128;24.750;2023-02-20T01:10:21;99831.22;;;13.67;42.23
32875;BME280;40468;42.128;24.750;2023-02-20T01:11:52;99837.38;;;13.65;42.09
32875;BME280;40468;42.128;24.750;2023-02-20T01:13:24;99832.91;;;13.68;42.07
32875;BME280;40468;42.128;24.750;2023-02-20T01:14:56;99847.66;;;13.69;41.85
32875;BME280;40468;42.128;24.750;2023-02-20T01:16:28;99836.34;;;13.68;42.10
32875;BME280;40468;42.128;24.750;2023-02-20T01:17:59;99849.38;;;13.70;41.75
32875;BME280;40468;42.128;24.750;2023-02-20T01:19:31;99840.66;;;13.69;42.10
32875;BME280;40468;42.128;24.750;2023-02-20T01:21:04;99845.03;;;13.69;41.78
32875;BME280;40468;42.128;24.750;2023-02-20T01:22:36;99839.91;;;13.67;41.83
32875;BME280;40468;42.128;24.750;2023-02-20T01:24:07;99860.66;;;13.70;42.00
32875;BME280;40468;42.128;24.750;2023-02-20T01:25:38;99856.34;;;13.69;42.06
32875;BME280;40468;42.128;24.750;2023-02-20T01:27:10;99855.44;;;13.70;41.99
32875;BME280;40468;42.128;24.750;2023-02-20T01:28:42;99853.91;;;13.66;41.86
32875;BME280;40468;42.128;24.750;2023-02-20T01:30:13;99853.84;;;13.68;42.07
32875;BME280;40468;42.128;24.750;2023-02-20T01:31:48;99841.75;;;13.65;41.86
32875;BME280;40468;42.128;24.750;2023-02-20T01:33:19;99851.38;;;13.64;42.07
32875;BME280;40468;42.128;24.750;2023-02-20T01:34:50;99848.84;;;13.63;41.83
32875;BME280;40468;42.128;24.750;2023-02-20T01:36:23;99842.78;;;13.62;42.07
32875;BME280;40468;42.128;24.750;2023-02-20T01:37:56;99843.53;;;13.64;41.87
32875;BME280;40468;42.128;24.750;2023-02-20T01:39:28;99846.22;;;13.63;42.18
32875;BME280;40468;42.128;24.750;2023-02-20T01:41:00;99848.84;;;13.63;42.16
32875;BME280;40468;42.128;24.750;2023-02-20T01:42:32;99859.41;;;13.61;42.39
32875;BME280;40468;42.128;24.750;2023-02-20T01:44:04;99848.13;;;13.61;42.02
32875;BME280;40468;42.128;24.750;2023-02-20T01:45:36;99854.25;;;13.60;42.13
32875;BME280;40468;42.128;24.750;2023-02-20T01:47:08;99854.25;;;13.60;42.05
32875;BME280;40468;42.128;24.750;2023-02-20T01:48:43;99856.88;;;13.60;41.98
32875;BME280;40468;42.128;24.750;2023-02-20T01:50:13;99848.28;;;13.58;42.12
32875;BME280;40468;42.128;24.750;2023-02-20T01:51:48;99863.22;;;13.56;42.30
32875;BME280;40468;42.128;24.750;2023-02-20T01:53:21;99860.69;;;13.54;42.12
32875;BME280;40468;42.128;24.750;2023-02-20T01:54:54;99860.00;;;13.51;42.43
32875;BME280;40468;42.128;24.750;2023-02-20T01:56:26;99859.25;;;13.49;42.15
32875;BME280;40468;42.128;24.750;2023-02-20T01:57:57;99854.88;;;13.49;42.42
32875;BME280;40468;42.128;24.750;2023-02-20T01:59:32;99856.72;;;13.47;42.31
32875;BME280;40468;42.128;24.750;2023-02-20T02:01:05;99864.47;;;13.49;42.39
32875;BME280;40468;42.128;24.750;2023-02-20T02:02:38;99863.75;;;13.47;42.36
32875;BME280;40468;42.128;24.750;2023-02-20T02:04:11;99863.91;;;13.43;42.49
32875;BME280;40468;42.128;24.750;2023-02-20T02:05:42;99870.16;;;13.41;42.54
32875;BME280;40468;42.128;24.750;2023-02-20T02:07:16;99872.09;;;13.37;42.39
32875;BME280;40468;42.128;24.750;2023-02-20T02:08:48;99863.50;;;13.35;42.64
32875;BME280;40468;42.128;24.750;2023-02-20T02:10:21;99865.28;;;13.35;42.63
32875;BME280;40468;42.128;24.750;2023-02-20T02:11:55;99868.97;;;13.31;42.69
32875;BME280;40468;42.128;24.750;2023-02-20T02:13:26;99874.28;;;13.29;42.39
32875;BME280;40468;42.128;24.750;2023-02-20T02:14:58;99891.00;;;13.27;42.62
32875;BME280;40468;42.128;24.750;2023-02-20T02:16:32;99898.94;;;13.25;42.67
32875;BME280;40468;42.128;24.750;2023-02-20T02:20:17;99892.13;;;13.21;42.79
32875;BME280;40468;42.128;24.750;2023-02-20T02:25:37;99889.25;;;13.10;42.66
32875;BME280;40468;42.128;24.750;2023-02-20T02:27:30;99887.66;;;13.07;42.82
32875;BME280;40468;42.128;24.750;2023-02-20T02:29:17;99897.44;;;13.04;42.99
32875;BME280;40468;42.128;24.750;2023-02-20T02:30:57;99899.31;;;13.02;42.82
32875;BME280;40468;42.128;24.750;2023-02-20T02:34:39;99904.00;;;12.95;43.07
32875;BME280;40468;42.128;24.750;2023-02-20T02:36:29;99902.53;;;12.89;43.36
32875;BME280;40468;42.128;24.750;2023-02-20T02:38:07;99900.97;;;12.87;43.78
32875;BME280;40468;42.128;24.750;2023-02-20T02:39:45;99903.75;;;12.84;43.68
32875;BME280;40468;42.128;24.750;2023-02-20T02:41:19;99902.97;;;12.82;44.04
32875;BME280;40468;42.128;24.750;2023-02-20T02:42:54;99914.44;;;12.79;44.17
32875;BME280;40468;42.128;24.750;2023-02-20T02:44:31;99915.38;;;12.78;44.23
32875;BME280;40468;42.128;24.750;2023-02-20T02:46:06;99916.19;;;12.79;44.38
32875;BME280;40468;42.128;24.750;2023-02-20T02:47:40;99928.44;;;12.78;44.08
32875;BME280;40468;42.128;24.750;2023-02-20T02:49:16;99919.72;;;12.78;44.34
32875;BME280;40468;42.128;24.750;2023-02-20T02:50:50;99926.72;;;12.77;44.34
32875;BME280;40468;42.128;24.750;2023-02-20T02:52:26;99929.28;;;12.79;44.20
32875;BME280;40468;42.128;24.750;2023-02-20T02:54:18;99930.28;;;12.76;44.85
32875;BME280;40468;42.128;24.750;2023-02-20T02:55:55;99931.09;;;12.77;44.70
32875;BME280;40468;42.128;24.750;2023-02-20T02:57:25;99934.66;;;12.75;44.99
32875;BME280;40468;42.128;24.750;2023-02-20T02:58:57;99943.34;;;12.76;44.90
32875;BME280;40468;42.128;24.750;2023-02-20T03:00:30;99947.78;;;12.74;44.90
32875;BME280;40468;42.128;24.750;2023-02-20T03:02:04;99960.09;;;12.72;45.26
32875;BME280;40468;42.128;24.750;2023-02-20T03:03:37;99959.25;;;12.71;45.30
32875;BME280;40468;42.128;24.750;2023-02-20T03:05:11;99949.81;;;12.69;45.00
32875;BME280;40468;42.128;24.750;2023-02-20T03:06:44;99958.72;;;12.65;45.23
32875;BME280;40468;42.128;24.750;2023-02-20T03:08:18;99951.81;;;12.64;45.69
32875;BME280;40468;42.128;24.750;2023-02-20T03:10:00;99954.66;;;12.59;45.63
32875;BME280;40468;42.128;24.750;2023-02-20T03:11:33;99954.75;;;12.58;45.43
32875;BME280;40468;42.128;24.750;2023-02-20T03:13:05;99956.56;;;12.56;45.42
32875;BME280;40468;42.128;24.750;2023-02-20T03:14:43;99954.91;;;12.55;45.71
32875;BME280;40468;42.128;24.750;2023-02-20T03:16:35;99948.13;;;12.50;45.52
32875;BME280;40468;42.128;24.750;2023-02-20T03:18:13;99963.03;;;12.48;45.71
32875;BME280;40468;42.128;24.750;2023-02-20T03:19:50;99970.09;;;12.46;45.61
32875;BME280;40468;42.128;24.750;2023-02-20T03:21:21;99972.72;;;12.46;45.60
32875;BME280;40468;42.128;24.750;2023-02-20T03:22:54;99974.63;;;12.43;45.50
32875;BME280;40468;42.128;24.750;2023-02-20T03:24:29;99974.69;;;12.41;45.51
32875;BME280;40468;42.128;24.750;2023-02-20T03:26:25;99975.63;;;12.40;45.90
32875;BME280;40468;42.128;24.750;2023-02-20T03:27:59;99975.69;;;12.39;45.82
32875;BME280;40468;42.128;24.750;2023-02-20T03:29:33;99980.06;;;12.38;46.00
32875;BME280;40468;42.128;24.750;2023-02-20T03:31:05;99971.41;;;12.38;46.10
32875;BME280;40468;42.128;24.750;2023-02-20T03:32:38;99973.19;;;12.37;46.29
32875;BME280;40468;42.128;24.750;2023-02-20T03:34:29;99971.41;;;12.38;46.18
32875;BME280;40468;42.128;24.750;2023-02-20T03:36:25;99974.84;;;12.38;46.13
32875;BME280;40468;42.128;24.750;2023-02-20T03:38:15;99974.06;;;12.36;46.18
32875;BME280;40468;42.128;24.750;2023-02-20T03:40:08;99978.63;;;12.33;46.71
32875;BME280;40468;42.128;24.750;2023-02-20T03:41:59;99981.22;;;12.33;46.54
32875;BME280;40468;42.128;24.750;2023-02-20T03:43:49;99976.25;;;12.28;46.71
32875;BME280;40468;42.128;24.750;2023-02-20T03:45:22;99984.97;;;12.27;46.42
32875;BME280;40468;42.128;24.750;2023-02-20T03:46:56;99982.47;;;12.25;46.65
32875;BME280;40468;42.128;24.750;2023-02-20T03:48:31;99988.53;;;12.26;46.75
32875;BME280;40468;42.128;24.750;2023-02-20T03:50:04;99991.19;;;12.24;46.68
32875;BME280;40468;42.128;24.750;2023-02-20T03:51:39;99996.41;;;12.24;46.75
32875;BME280;40468;42.128;24.750;2023-02-20T03:53:11;99995.56;;;12.24;46.48
32875;BME280;40468;42.128;24.750;2023-02-20T03:54:42;100010.50;;;12.22;46.82
32875;BME280;40468;42.128;24.750;2023-02-20T03:56:16;99999.28;;;12.20;46.68
32875;BME280;40468;42.128;24.750;2023-02-20T03:57:49;100015.00;;;12.18;47.08
32875;BME280;40468;42.128;24.750;2023-02-20T03:59:23;100015.94;;;12.17;46.75
32875;BME280;40468;42.128;24.750;2023-02-20T04:00:57;100015.94;;;12.17;47.05
32875;BME280;40468;42.128;24.750;2023-02-20T04:02:32;100016.00;;;12.16;47.28
32875;BME280;40468;42.128;24.750;2023-02-20T04:04:05;100009.03;;;12.16;47.17
32875;BME280;40468;42.128;24.750;2023-02-20T04:05:39;100011.53;;;12.18;47.19
32875;BME280;40468;42.128;24.750;2023-02-20T04:07:14;100009.78;;;12.18;47.19
32875;BME280;40468;42.128;24.750;2023-02-20T04:08:47;100011.53;;;12.18;47.42
32875;BME280;40468;42.128;24.750;2023-02-20T04:10:22;100022.00;;;12.18;47.66
32875;BME280;40468;42.128;24.750;2023-02-20T04:11:57;100020.31;;;12.17;47.46
32875;BME280;40468;42.128;24.750;2023-02-20T04:13:30;100012.38;;;12.18;47.48
32875;BME280;40468;42.128;24.750;2023-02-20T04:15:03;100013.16;;;12.20;47.41
32875;BME280;40468;42.128;24.750;2023-02-20T04:16:36;100015.78;;;12.20;47.29
32875;BME280;40468;42.128;24.750;2023-02-20T04:18:09;100023.59;;;12.20;47.72
32875;BME280;40468;42.128;24.750;2023-02-20T04:19:42;100024.59;;;12.18;47.44
32875;BME280;40468;42.128;24.750;2023-02-20T04:21:14;100020.31;;;12.17;47.74
32875;BME280;40468;42.128;24.750;2023-02-20T04:22:49;100022.13;;;12.15;47.85
32875;BME280;40468;42.128;24.750;2023-02-20T04:24:24;100022.22;;;12.13;47.76
32875;BME280;40468;42.128;24.750;2023-02-20T04:25:59;100015.44;;;12.09;48.14
32875;BME280;40468;42.128;24.750;2023-02-20T04:27:33;100009.47;;;12.07;48.16
32875;BME280;40468;42.128;24.750;2023-02-20T04:29:05;100021.75;;;12.05;48.25
32875;BME280;40468;42.128;24.750;2023-02-20T04:30:36;100011.44;;;12.02;48.31
32875;BME280;40468;42.128;24.750;2023-02-20T04:32:07;100020.25;;;11.99;48.27
32875;BME280;40468;42.128;24.750;2023-02-20T04:33:39;100005.81;;;11.92;48.19
32875;BME280;40468;42.128;24.750;2023-02-20T04:35:13;100017.09;;;11.93;48.50
32875;BME280;40468;42.128;24.750;2023-02-20T04:36:44;100017.09;;;11.93;48.14
32875;BME280;40468;42.128;24.750;2023-02-20T04:38:16;100033.59;;;11.93;48.35
32875;BME280;40468;42.128;24.750;2023-02-20T04:39:48;100019.78;;;11.91;48.30
32875;BME280;40468;42.128;24.750;2023-02-20T04:41:19;100018.25;;;11.87;48.30
32875;BME280;40468;42.128;24.750;2023-02-20T04:42:52;100021.78;;;11.86;48.22
32875;BME280;40468;42.128;24.750;2023-02-20T04:44:23;100014.03;;;11.83;48.33
32875;BME280;40468;42.128;24.750;2023-02-20T04:46:04;100014.25;;;11.78;48.45
32875;BME280;40468;42.128;24.750;2023-02-20T04:47:35;100010.13;;;11.74;48.36
32875;BME280;40468;42.128;24.750;2023-02-20T04:49:07;100018.97;;;11.70;48.59
32875;BME280;40468;42.128;24.750;2023-02-20T04:50:39;100018.44;;;11.64;48.78
32875;BME280;40468;42.128;24.750;2023-02-20T04:52:11;100024.72;;;11.59;49.04
32875;BME280;40468;42.128;24.750;2023-02-20T04:53:41;100029.19;;;11.56;48.78
32875;BME280;40468;42.128;24.750;2023-02-20T04:55:13;100025.69;;;11.57;48.68
32875;BME280;40468;42.128;24.750;2023-02-20T04:56:43;100024.97;;;11.53;48.88
32875;BME280;40468;42.128;24.750;2023-02-20T04:58:16;100024.22;;;11.51;48.51
32875;BME280;40468;42.128;24.750;2023-02-20T04:59:48;100021.66;;;11.50;48.53
32875;BME280;40468;42.128;24.750;2023-02-20T05:01:19;100035.53;;;11.50;48.42
32875;BME280;40468;42.128;24.750;2023-02-20T05:02:50;100035.47;;;11.52;48.22
32875;BME280;40468;42.128;24.750;2023-02-20T05:04:22;100042.47;;;11.51;48.25
32875;BME280;40468;42.128;24.750;2023-02-20T05:05:53;100036.41;;;11.51;48.14
32875;BME280;40468;42.128;24.750;2023-02-20T05:07:24;100035.63;;;11.49;48.30
32875;BME280;40468;42.128;24.750;2023-02-20T05:08:56;100033.84;;;11.49;47.82
32875;BME280;40468;42.128;24.750;2023-02-20T05:10:28;100042.59;;;11.48;48.07
32875;BME280;40468;42.128;24.750;2023-02-20T05:12:00;100040.00;;;11.48;47.97
32875;BME280;40468;42.128;24.750;2023-02-20T05:13:33;100040.13;;;11.45;47.81
32875;BME280;40468;42.128;24.750;2023-02-20T05:15:06;100036.78;;;11.42;47.84
32875;BME280;40468;42.128;24.750;2023-02-20T05:16:38;100042.09;;;11.40;47.72
32875;BME280;40468;42.128;24.750;2023-02-20T05:18:11;100044.84;;;11.37;47.90
32875;BME280;40468;42.128;24.750;2023-02-20T05:19:43;100036.38;;;11.32;47.78
32875;BME280;40468;42.128;24.750;2023-02-20T05:21:15;100039.09;;;11.29;47.81
32875;BME280;40468;42.128;24.750;2023-02-20T05:23:04;100033.97;;;11.27;48.13
32875;BME280;40468;42.128;24.750;2023-02-20T05:24:35;100043.66;;;11.24;48.08
32875;BME280;40468;42.128;24.750;2023-02-20T05:26:07;100044.53;;;11.24;47.98
32875;BME280;40468;42.128;24.750;2023-02-20T05:27:39;100050.50;;;11.26;48.12
32875;BME280;40468;42.128;24.750;2023-02-20T05:29:13;100039.25;;;11.26;47.87
32875;BME280;40468;42.128;24.750;2023-02-20T05:30:43;100047.84;;;11.28;47.75
32875;BME280;40468;42.128;24.750;2023-02-20T05:32:15;100056.53;;;11.28;47.72
32875;BME280;40468;42.128;24.750;2023-02-20T05:33:46;100060.88;;;11.28;47.53
32875;BME280;40468;42.128;24.750;2023-02-20T05:35:18;100070.41;;;11.29;47.60
32875;BME280;40468;42.128;24.750;2023-02-20T05:36:48;100069.56;;;11.28;47.63
32875;BME280;40468;42.128;24.750;2023-02-20T05:38:20;100077.38;;;11.28;47.29
32875;BME280;40468;42.128;24.750;2023-02-20T05:39:52;100079.94;;;11.30;47.31
32875;BME280;40468;42.128;24.750;2023-02-20T05:41:24;100063.50;;;11.28;47.17
32875;BME280;40468;42.128;24.750;2023-02-20T05:42:55;100086.59;;;11.35;47.04
32875;BME280;40468;42.128;24.750;2023-02-20T05:44:28;100094.38;;;11.37;47.10
32875;BME280;40468;42.128;24.750;2023-02-20T05:45:59;100089.97;;;11.39;46.97
32875;BME280;40468;42.128;24.750;2023-02-20T05:47:30;100095.94;;;11.41;46.96
32875;BME280;40468;42.128;24.750;2023-02-20T05:49:02;100085.44;;;11.43;46.69
32875;BME280;40468;42.128;24.750;2023-02-20T05:50:33;100103.56;;;11.46;46.65
32875;BME280;40468;42.128;24.750;2023-02-20T05:52:05;100111.25;;;11.49;46.63
32875;BME280;40468;42.128;24.750;2023-02-20T05:53:40;100110.28;;;11.51;46.64
32875;BME280;40468;42.128;24.750;2023-02-20T05:55:12;100115.34;;;11.54;46.20
32875;BME280;40468;42.128;24.750;2023-02-20T05:56:49;100119.66;;;11.55;46.25
32875;BME280;40468;42.128;24.750;2023-02-20T05:58:21;100123.84;;;11.59;46.13
32875;BME280;40468;42.128;24.750;2023-02-20T05:59:54;100125.50;;;11.60;46.11
32875;BME280;40468;42.128;24.750;2023-02-20T06:01:27;100130.59;;;11.64;46.05
32875;BME280;40468;42.128;24.750;2023-02-20T06:02:59;100130.47;;;11.67;46.18
32875;BME280;40468;42.128;24.750;2023-02-20T06:04:30;100129.41;;;11.71;46.10
32875;BME280;40468;42.128;24.750;2023-02-20T06:06:02;100136.94;;;11.77;45.75
32875;BME280;40468;42.128;24.750;2023-02-20T06:07:33;100135.00;;;11.82;45.59
32875;BME280;40468;42.128;24.750;2023-02-20T06:09:05;100135.78;;;11.84;45.60
32875;BME280;40468;42.128;24.750;2023-02-20T06:10:37;100133.84;;;11.89;45.44
32875;BME280;40468;42.128;24.750;2023-02-20T06:12:09;100138.84;;;11.94;45.28
32875;BME280;40468;42.128;24.750;2023-02-20T06:13:41;100149.09;;;11.98;45.35
32875;BME280;40468;42.128;24.750;2023-02-20T06:15:14;100151.47;;;12.03;45.31
32875;BME280;40468;42.128;24.750;2023-02-20T06:16:46;100162.59;;;12.06;44.98
32875;BME280;40468;42.128;24.750;2023-02-20T06:18:18;100160.59;;;12.13;44.85
32875;BME280;40468;42.128;24.750;2023-02-20T06:19:49;100162.97;;;12.18;44.86
32875;BME280;40468;42.128;24.750;2023-02-20T06:21:21;100166.13;;;12.24;44.67
32875;BME280;40468;42.128;24.750;2023-02-20T06:22:52;100171.94;;;12.31;44.63
32875;BME280;40468;42.128;24.750;2023-02-20T06:24:24;100169.94;;;12.36;44.43
32875;BME280;40468;42.128;24.750;2023-02-20T06:25:56;100169.69;;;12.42;44.60
32875;BME280;40468;42.128;24.750;2023-02-20T06:27:27;100165.06;;;12.47;44.31
32875;BME280;40468;42.128;24.750;2023-02-20T06:28:59;100167.41;;;12.53;44.15
32875;BME280;40468;42.128;24.750;2023-02-20T06:30:32;100180.75;;;12.66;43.96
32875;BME280;40468;42.128;24.750;2023-02-20T06:32:04;100177.59;;;12.77;43.76
32875;BME280;40468;42.128;24.750;2023-02-20T06:33:36;100185.91;;;12.85;43.64
32875;BME280;40468;42.128;24.750;2023-02-20T06:35:08;100185.47;;;12.94;43.40
32875;BME280;40468;42.128;24.750;2023-02-20T06:36:40;100182.56;;;13.01;43.07
32875;BME280;40468;42.128;24.750;2023-02-20T06:38:11;100197.78;;;13.10;42.94
32875;BME280;40468;42.128;24.750;2023-02-20T06:39:44;100191.94;;;13.22;42.72
32875;BME280;40468;42.128;24.750;2023-02-20T06:41:17;100183.38;;;13.37;42.25
32875;BME280;40468;42.128;24.750;2023-02-20T06:42:48;100187.00;;;13.52;42.35
32875;BME280;40468;42.128;24.750;2023-02-20T06:44:19;100173.94;;;13.68;41.76
32875;BME280;40468;42.128;24.750;2023-02-20T06:45:53;100181.00;;;13.83;41.44
32875;BME280;40468;42.128;24.750;2023-02-20T06:47:24;100174.38;;;13.94;40.89
32875;BME280;40468;42.128;24.750;2023-02-20T06:48:57;100175.31;;;14.08;40.80
32875;BME280;40468;42.128;24.750;2023-02-20T06:50:28;100163.16;;;14.23;40.19
32875;BME280;40468;42.128;24.750;2023-02-20T06:52:00;100173.22;;;14.31;40.12
32875;BME280;40468;42.128;24.750;2023-02-20T06:53:32;100163.94;;;14.41;39.88
32875;BME280;40468;42.128;24.750;2023-02-20T06:57:03;100160.81;;;14.66;39.66
32875;BME280;40468;42.128;24.750;2023-02-20T06:58:34;100156.81;;;14.75;39.13
32875;BME280;40468;42.128;24.750;2023-02-20T07:00:06;100156.41;;;14.83;39.10
32875;BME280;40468;42.128;24.750;2023-02-20T07:01:40;100159.44;;;14.91;38.99
32875;BME280;40468;42.128;24.750;2023-02-20T07:03:13;100151.94;;;14.99;39.00
32875;BME280;40468;42.128;24.750;2023-02-20T07:04:46;100158.31;;;15.25;38.96
32875;BME280;40468;42.128;24.750;2023-02-20T07:06:18;100157.53;;;15.53;38.97
32875;BME280;40468;42.128;24.750;2023-02-20T07:07:49;100147.81;;;15.84;38.69
32875;BME280;40468;42.128;24.750;2023-02-20T07:09:21;100166.25;;;16.25;38.32
32875;BME280;40468;42.128;24.750;2023-02-20T07:10:54;100154.78;;;16.68;37.91
32875;BME280;40468;42.128;24.750;2023-02-20T07:12:27;100148.94;;;17.17;37.26
32875;BME280;40468;42.128;24.750;2023-02-20T07:13:59;100151.06;;;17.63;36.69
32875;BME280;40468;42.128;24.750;2023-02-20T07:15:30;100146.94;;;18.23;36.10
32875;BME280;40468;42.128;24.750;2023-02-20T07:17:03;100136.34;;;18.59;34.79
32875;BME280;40468;42.128;24.750;2023-02-20T07:18:35;100162.28;;;18.78;34.03
32875;BME280;40468;42.128;24.750;2023-02-20T07:20:07;100145.81;;;19.10;33.73
32875;BME280;40468;42.128;24.750;2023-02-20T07:21:39;100145.66;;;19.36;32.96
32875;BME280;40468;42.128;24.750;2023-02-20T07:23:10;100152.56;;;19.72;32.84
32875;BME280;40468;42.128;24.750;2023-02-20T07:24:42;100153.19;;;20.09;32.46
32875;BME280;40468;42.128;24.750;2023-02-20T07:26:18;100151.22;;;20.22;31.71
32875;BME280;40468;42.128;24.750;2023-02-20T07:27:49;100151.44;;;20.42;31.18
32875;BME280;40468;42.128;24.750;2023-02-20T07:29:21;100151.88;;;20.70;31.03
32875;BME280;40468;42.128;24.750;2023-02-20T07:30:52;100154.44;;;20.92;30.76
32875;BME280;40468;42.128;24.750;2023-02-20T07:32:25;100150.44;;;21.19;29.86
32875;BME280;40468;42.128;24.750;2023-02-20T07:33:57;100143.00;;;21.45;29.67
32875;BME280;40468;42.128;24.750;2023-02-20T07:35:28;100155.38;;;21.44;29.04
32875;BME280;40468;42.128;24.750;2023-02-20T07:37:00;100148.19;;;21.35;28.57
32875;BME280;40468;42.128;24.750;2023-02-20T07:38:32;100146.94;;;21.50;28.75
32875;BME280;40468;42.128;24.750;2023-02-20T07:40:03;100154.00;;;21.50;28.03
32875;BME280;40468;42.128;24.750;2023-02-20T07:41:35;100156.25;;;21.45;28.17
32875;BME280;40468;42.128;24.750;2023-02-20T07:43:07;100163.72;;;21.40;27.63
32875;BME280;40468;42.128;24.750;2023-02-20T07:44:39;100166.84;;;21.12;27.52
32875;BME280;40468;42.128;24.750;2023-02-20T07:46:10;100164.78;;;20.95;27.60
32875;BME280;40468;42.128;24.750;2023-02-20T07:47:43;100175.28;;;20.85;27.28
32875;BME280;40468;42.128;24.750;2023-02-20T07:49:15;100164.88;;;20.61;27.37
32875;BME280;40468;42.128;24.750;2023-02-20T07:50:46;100169.47;;;20.37;27.52
32875;BME280;40468;42.128;24.750;2023-02-20T07:52:18;100166.00;;;20.14;27.63
32875;BME280;40468;42.128;24.750;2023-02-20T07:53:50;100159.66;;;20.05;28.10
32875;BME280;40468;42.128;24.750;2023-02-20T07:55:23;100154.59;;;20.02;28.20
32875;BME280;40468;42.128;24.750;2023-02-20T07:56:55;100155.34;;;20.15;28.33
32875;BME280;40468;42.128;24.750;2023-02-20T07:58:27;100161.78;;;20.34;27.93
32875;BME280;40468;42.128;24.750;2023-02-20T07:59:58;100148.28;;;20.48;27.74
32875;BME280;40468;42.128;24.750;2023-02-20T08:01:30;100148.84;;;20.74;27.12
32875;BME280;40468;42.128;24.750;2023-02-20T08:03:03;100151.03;;;21.01;27.15
32875;BME280;40468;42.128;24.750;2023-02-20T08:04:34;100143.13;;;21.32;26.74
32875;BME280;40468;42.128;24.750;2023-02-20T08:06:06;100140.13;;;21.57;26.05
32875;BME280;40468;42.128;24.750;2023-02-20T08:07:38;100148.34;;;21.54;25.78
32875;BME280;40468;42.128;24.750;2023-02-20T08:09:14;100138.25;;;21.48;25.51
32875;BME280;40468;42.128;24.750;2023-02-20T08:10:45;100129.59;;;21.46;25.21
32875;BME280;40468;42.128;24.750;2023-02-20T08:12:17;100137.44;;;21.48;25.43
32875;BME280;40468;42.128;24.750;2023-02-20T08:13:48;100140.44;;;21.64;25.29
32875;BME280;40468;42.128;24.750;2023-02-20T08:15:20;100129.38;;;21.59;25.33